sensor_id;sensor_type;location;lat;lon;timestamp;temperature;humidity
40374;DHT22;26079;45.958;12.492;2024-01-10T00:02:14;1.50;94.00
40374;DHT22;26079;45.958;12.492;2024-01-10T00:04:39;1.50;93.70
40374;DHT22;26079;45.958;12.492;2024-01-10T00:07:05;1.50;93.50
40374;DHT22;26079;45.958;12.492;2024-01-10T00:09:31;1.50;93.50
40374;DHT22;26079;45.958;12.492;2024-01-10T00:11:57;1.50;94.70
40374;DHT22;26079;45.958;12.492;2024-01-10T00:14:22;1.40;93.50
40374;DHT22;26079;45.958;12.492;2024-01-10T00:16:48;1.50;93.30
40374;DHT22;26079;45.958;12.492;2024-01-10T00:19:14;1.50;94.80
40374;DHT22;26079;45.958;12.492;2024-01-10T00:21:39;1.50;95.30
40374;DHT22;26079;45.958;12.492;2024-01-10T00:24:05;1.50;92.00
40374;DHT22;26079;45.958;12.492;2024-01-10T00:26:31;1.60;91.60
40374;DHT22;26079;45.958;12.492;2024-01-10T00:28:57;1.70;89.80
40374;DHT22;26079;45.958;12.492;2024-01-10T00:31:22;1.80;89.00
40374;DHT22;26079;45.958;12.492;2024-01-10T00:33:48;1.80;90.40
40374;DHT22;26079;45.958;12.492;2024-01-10T00:36:14;1.90;89.70
40374;DHT22;26079;45.958;12.492;2024-01-10T00:38:40;1.90;88.10
40374;DHT22;26079;45.958;12.492;2024-01-10T00:41:05;2.00;88.20
40374;DHT22;26079;45.958;12.492;2024-01-10T00:43:31;2.10;86.50
40374;DHT22;26079;45.958;12.492;2024-01-10T00:45:57;2.10;85.80
40374;DHT22;26079;45.958;12.492;2024-01-10T00:48:23;2.20;86.60
40374;DHT22;26079;45.958;12.492;2024-01-10T00:50:49;2.20;86.00
40374;DHT22;26079;45.958;12.492;2024-01-10T00:53:14;2.30;85.30
40374;DHT22;26079;45.958;12.492;2024-01-10T00:55:40;2.30;84.90
40374;DHT22;26079;45.958;12.492;2024-01-10T00:58:06;2.30;85.30
40374;DHT22;26079;45.958;12.492;2024-01-10T01:00:32;2.40;83.80
40374;DHT22;26079;45.958;12.492;2024-01-10T01:02:58;2.40;83.80
40374;DHT22;26079;45.958;12.492;2024-01-10T01:05:24;2.40;84.90
40374;DHT22;26079;45.958;12.492;2024-01-10T01:07:49;2.40;85.90
40374;DHT22;26079;45.958;12.492;2024-01-10T01:10:15;2.30;86.20
40374;DHT22;26079;45.958;12.492;2024-01-10T01:12:42;2.20;86.00
40374;DHT22;26079;45.958;12.492;2024-01-10T01:15:08;2.10;87.00
40374;DHT22;26079;45.958;12.492;2024-01-10T01:17:33;2.10;86.60
40374;DHT22;26079;45.958;12.492;2024-01-10T01:20:00;2.00;87.40
40374;DHT22;26079;45.958;12.492;2024-01-10T01:22:26;1.90;88.70
40374;DHT22;26079;45.958;12.492;2024-01-10T01:24:52;1.80;89.70
40374;DHT22;26079;45.958;12.492;2024-01-10T01:27:17;1.70;90.20
40374;DHT22;26079;45.958;12.492;2024-01-10T01:29:43;1.60;92.80
40374;DHT22;26079;45.958;12.492;2024-01-10T01:32:09;1.50;93.90
40374;DHT22;26079;45.958;12.492;2024-01-10T01:34:34;1.50;93.60
40374;DHT22;26079;45.958;12.492;2024-01-10T01:37:00;1.40;94.50
40374;DHT22;26079;45.958;12.492;2024-01-10T01:39:26;1.30;94.40
40374;DHT22;26079;45.958;12.492;2024-01-10T01:41:52;1.40;92.20
40374;DHT22;26079;45.958;12.492;2024-01-10T01:44:18;1.40;94.70
40374;DHT22;26079;45.958;12.492;2024-01-10T01:46:45;1.40;95.80
40374;DHT22;26079;45.958;12.492;2024-01-10T01:49:11;1.30;96.10
40374;DHT22;26079;45.958;12.492;2024-01-10T01:51:37;1.20;95.70
40374;DHT22;26079;45.958;12.492;2024-01-10T01:54:07;1.20;95.90
40374;DHT22;26079;45.958;12.492;2024-01-10T01:56:37;1.10;98.10
40374;DHT22;26079;45.958;12.492;2024-01-10T01:59:04;1.00;99.00
40374;DHT22;26079;45.958;12.492;2024-01-10T02:01:30;1.00;99.60
40374;DHT22;26079;45.958;12.492;2024-01-10T02:03:56;0.90;99.90
40374;DHT22;26079;45.958;12.492;2024-01-10T02:06:22;0.90;99.90
40374;DHT22;26079;45.958;12.492;2024-01-10T02:08:48;0.90;99.90
40374;DHT22;26079;45.958;12.492;2024-01-10T02:11:14;0.80;99.90
40374;DHT22;26079;45.958;12.492;2024-01-10T02:13:40;0.80;99.90
40374;DHT22;26079;45.958;12.492;2024-01-10T02:16:06;0.80;99.90
40374;DHT22;26079;45.958;12.492;2024-01-10T02:18:33;0.70;98.80
40374;DHT22;26079;45.958;12.492;2024-01-10T02:21:00;0.70;99.90
40374;DHT22;26079;45.958;12.492;2024-01-10T02:23:26;0.60;99.90
40374;DHT22;26079;45.958;12.492;2024-01-10T02:25:52;0.60;99.90
40374;DHT22;26079;45.958;12.492;2024-01-10T02:28:18;0.60;99.90
40374;DHT22;26079;45.958;12.492;2024-01-10T02:30:44;0.50;99.90
40374;DHT22;26079;45.958;12.492;2024-01-10T02:33:09;0.50;99.90
40374;DHT22;26079;45.958;12.492;2024-01-10T02:35:35;0.50;99.90
40374;DHT22;26079;45.958;12.492;2024-01-10T02:38:01;0.40;99.90
40374;DHT22;26079;45.958;12.492;2024-01-10T02:40:27;0.30;99.90
40374;DHT22;26079;45.958;12.492;2024-01-10T02:42:53;0.30;99.90
40374;DHT22;26079;45.958;12.492;2024-01-10T02:45:18;0.30;99.90
40374;DHT22;26079;45.958;12.492;2024-01-10T02:47:45;0.30;99.90
40374;DHT22;26079;45.958;12.492;2024-01-10T02:50:11;0.30;99.90
40374;DHT22;26079;45.958;12.492;2024-01-10T02:52:37;0.30;99.90
40374;DHT22;26079;45.958;12.492;2024-01-10T02:55:03;0.30;99.90
40374;DHT22;26079;45.958;12.492;2024-01-10T02:57:28;0.30;99.90
40374;DHT22;26079;45.958;12.492;2024-01-10T02:59:54;0.30;99.90
40374;DHT22;26079;45.958;12.492;2024-01-10T03:02:20;0.20;99.50
40374;DHT22;26079;45.958;12.492;2024-01-10T03:04:45;0.20;99.90
40374;DHT22;26079;45.958;12.492;2024-01-10T03:07:11;0.20;99.90
40374;DHT22;26079;45.958;12.492;2024-01-10T03:09:37;0.10;99.90
40374;DHT22;26079;45.958;12.492;2024-01-10T03:12:03;0.10;99.90
40374;DHT22;26079;45.958;12.492;2024-01-10T03:14:29;0.10;99.90
40374;DHT22;26079;45.958;12.492;2024-01-10T03:16:54;0.00;99.90
40374;DHT22;26079;45.958;12.492;2024-01-10T03:19:20;0.00;99.90
40374;DHT22;26079;45.958;12.492;2024-01-10T03:21:46;0.00;99.90
40374;DHT22;26079;45.958;12.492;2024-01-10T03:24:11;-0.10;99.90
40374;DHT22;26079;45.958;12.492;2024-01-10T03:26:38;0.00;99.90
40374;DHT22;26079;45.958;12.492;2024-01-10T03:29:03;0.00;99.90
40374;DHT22;26079;45.958;12.492;2024-01-10T03:31:30;0.00;99.90
40374;DHT22;26079;45.958;12.492;2024-01-10T03:33:59;-0.10;99.90
40374;DHT22;26079;45.958;12.492;2024-01-10T03:36:25;-0.10;99.90
40374;DHT22;26079;45.958;12.492;2024-01-10T03:38:51;0.00;99.90
40374;DHT22;26079;45.958;12.492;2024-01-10T03:41:17;-0.10;99.90
40374;DHT22;26079;45.958;12.492;2024-01-10T03:43:44;-0.10;99.90
40374;DHT22;26079;45.958;12.492;2024-01-10T03:46:10;-0.10;99.90
40374;DHT22;26079;45.958;12.492;2024-01-10T03:48:36;-0.10;99.90
40374;DHT22;26079;45.958;12.492;2024-01-10T03:51:03;-0.10;99.90
40374;DHT22;26079;45.958;12.492;2024-01-10T03:53:28;-0.10;99.90
40374;DHT22;26079;45.958;12.492;2024-01-10T03:55:55;-0.10;99.90
40374;DHT22;26079;45.958;12.492;2024-01-10T03:58:21;-0.10;99.90
40374;DHT22;26079;45.958;12.492;2024-01-10T04:00:47;-0.10;99.90
40374;DHT22;26079;45.958;12.492;2024-01-10T04:03:13;-0.10;99.90
40374;DHT22;26079;45.958;12.492;2024-01-10T04:05:39;-0.10;99.90
40374;DHT22;26079;45.958;12.492;2024-01-10T04:08:05;-0.10;99.90
40374;DHT22;26079;45.958;12.492;2024-01-10T04:10:30;-0.10;99.90
40374;DHT22;26079;45.958;12.492;2024-01-10T04:12:56;-0.10;99.90
40374;DHT22;26079;45.958;12.492;2024-01-10T04:15:22;0.00;99.90
40374;DHT22;26079;45.958;12.492;2024-01-10T04:17:48;-0.10;99.90
40374;DHT22;26079;45.958;12.492;2024-01-10T04:20:13;-0.10;99.90
40374;DHT22;26079;45.958;12.492;2024-01-10T04:22:39;-0.10;99.90
40374;DHT22;26079;45.958;12.492;2024-01-10T04:25:08;-0.10;99.90
40374;DHT22;26079;45.958;12.492;2024-01-10T04:27:34;-0.10;99.90
40374;DHT22;26079;45.958;12.492;2024-01-10T04:29:59;-0.10;99.90
40374;DHT22;26079;45.958;12.492;2024-01-10T04:32:25;-0.10;99.90
40374;DHT22;26079;45.958;12.492;2024-01-10T04:34:51;-0.10;99.90
40374;DHT22;26079;45.958;12.492;2024-01-10T04:37:17;-0.10;99.90
40374;DHT22;26079;45.958;12.492;2024-01-10T04:39:43;-0.20;99.90
40374;DHT22;26079;45.958;12.492;2024-01-10T04:42:11;-0.10;99.90
40374;DHT22;26079;45.958;12.492;2024-01-10T04:44:37;-0.20;99.90
40374;DHT22;26079;45.958;12.492;2024-01-10T04:47:03;-0.10;99.90
40374;DHT22;26079;45.958;12.492;2024-01-10T04:49:30;-0.10;99.90
40374;DHT22;26079;45.958;12.492;2024-01-10T04:51:58;-0.20;99.90
40374;DHT22;26079;45.958;12.492;2024-01-10T04:54:24;-0.20;99.90
40374;DHT22;26079;45.958;12.492;2024-01-10T04:56:50;-0.20;99.90
40374;DHT22;26079;45.958;12.492;2024-01-10T04:59:15;-0.20;99.90
40374;DHT22;26079;45.958;12.492;2024-01-10T05:01:41;-0.20;99.90
40374;DHT22;26079;45.958;12.492;2024-01-10T05:04:07;-0.20;99.90
40374;DHT22;26079;45.958;12.492;2024-01-10T05:06:32;-0.20;99.90
40374;DHT22;26079;45.958;12.492;2024-01-10T05:08:58;-0.20;99.90
40374;DHT22;26079;45.958;12.492;2024-01-10T05:11:25;-0.20;99.90
40374;DHT22;26079;45.958;12.492;2024-01-10T05:13:54;-0.20;99.90
40374;DHT22;26079;45.958;12.492;2024-01-10T05:16:20;-0.20;99.90
40374;DHT22;26079;45.958;12.492;2024-01-10T05:18:46;-0.20;99.90
40374;DHT22;26079;45.958;12.492;2024-01-10T05:21:11;-0.20;99.90
40374;DHT22;26079;45.958;12.492;2024-01-10T05:23:37;-0.10;99.90
40374;DHT22;26079;45.958;12.492;2024-01-10T05:26:05;-0.10;99.90
40374;DHT22;26079;45.958;12.492;2024-01-10T05:28:30;-0.10;99.90
40374;DHT22;26079;45.958;12.492;2024-01-10T05:30:57;-0.20;99.90
40374;DHT22;26079;45.958;12.492;2024-01-10T05:33:23;-0.10;99.90
40374;DHT22;26079;45.958;12.492;2024-01-10T05:35:51;-0.10;99.90
40374;DHT22;26079;45.958;12.492;2024-01-10T05:38:17;-0.10;99.90
40374;DHT22;26079;45.958;12.492;2024-01-10T05:40:43;-0.10;99.90
40374;DHT22;26079;45.958;12.492;2024-01-10T05:43:09;-0.10;99.90
40374;DHT22;26079;45.958;12.492;2024-01-10T05:45:38;-0.20;99.90
40374;DHT22;26079;45.958;12.492;2024-01-10T05:48:04;-0.20;99.90
40374;DHT22;26079;45.958;12.492;2024-01-10T05:50:32;-0.20;99.90
40374;DHT22;26079;45.958;12.492;2024-01-10T05:52:57;-0.20;99.90
40374;DHT22;26079;45.958;12.492;2024-01-10T05:55:23;-0.20;99.90
40374;DHT22;26079;45.958;12.492;2024-01-10T05:57:49;-0.20;99.90
40374;DHT22;26079;45.958;12.492;2024-01-10T06:00:15;-0.20;99.90
40374;DHT22;26079;45.958;12.492;2024-01-10T06:02:42;-0.20;99.90
40374;DHT22;26079;45.958;12.492;2024-01-10T06:05:09;-0.10;99.90
40374;DHT22;26079;45.958;12.492;2024-01-10T06:07:36;-0.10;99.90
40374;DHT22;26079;45.958;12.492;2024-01-10T06:10:01;0.00;99.90
40374;DHT22;26079;45.958;12.492;2024-01-10T06:12:28;0.00;99.50
40374;DHT22;26079;45.958;12.492;2024-01-10T06:14:54;0.00;99.00
40374;DHT22;26079;45.958;12.492;2024-01-10T06:17:20;0.10;98.90
40374;DHT22;26079;45.958;12.492;2024-01-10T06:19:45;0.10;98.90
40374;DHT22;26079;45.958;12.492;2024-01-10T06:22:11;0.20;99.40
40374;DHT22;26079;45.958;12.492;2024-01-10T06:24:37;0.20;99.90
40374;DHT22;26079;45.958;12.492;2024-01-10T06:27:08;0.20;99.90
40374;DHT22;26079;45.958;12.492;2024-01-10T06:29:35;0.20;98.30
40374;DHT22;26079;45.958;12.492;2024-01-10T06:32:02;0.30;96.90
40374;DHT22;26079;45.958;12.492;2024-01-10T06:34:28;0.40;96.10
40374;DHT22;26079;45.958;12.492;2024-01-10T06:36:54;0.40;95.40
40374;DHT22;26079;45.958;12.492;2024-01-10T06:39:19;0.50;95.40
40374;DHT22;26079;45.958;12.492;2024-01-10T06:41:48;0.40;94.80
40374;DHT22;26079;45.958;12.492;2024-01-10T06:44:15;0.40;96.10
40374;DHT22;26079;45.958;12.492;2024-01-10T06:46:43;0.50;96.60
40374;DHT22;26079;45.958;12.492;2024-01-10T06:49:09;0.50;97.80
40374;DHT22;26079;45.958;12.492;2024-01-10T06:51:35;0.50;95.90
40374;DHT22;26079;45.958;12.492;2024-01-10T06:54:01;0.50;95.90
40374;DHT22;26079;45.958;12.492;2024-01-10T06:56:32;0.60;94.30
40374;DHT22;26079;45.958;12.492;2024-01-10T06:58:59;0.60;93.20
40374;DHT22;26079;45.958;12.492;2024-01-10T07:01:26;0.70;92.70
40374;DHT22;26079;45.958;12.492;2024-01-10T07:03:52;0.90;89.30
40374;DHT22;26079;45.958;12.492;2024-01-10T07:06:18;1.10;87.60
40374;DHT22;26079;45.958;12.492;2024-01-10T07:08:44;1.20;89.90
40374;DHT22;26079;45.958;12.492;2024-01-10T07:11:10;1.20;89.50
40374;DHT22;26079;45.958;12.492;2024-01-10T07:13:40;1.20;90.00
40374;DHT22;26079;45.958;12.492;2024-01-10T07:16:06;1.20;92.40
40374;DHT22;26079;45.958;12.492;2024-01-10T07:18:32;1.20;91.60
40374;DHT22;26079;45.958;12.492;2024-01-10T07:20:58;1.20;90.10
40374;DHT22;26079;45.958;12.492;2024-01-10T07:23:23;1.30;90.00
40374;DHT22;26079;45.958;12.492;2024-01-10T07:25:49;1.30;92.20
40374;DHT22;26079;45.958;12.492;2024-01-10T07:28:16;1.40;87.60
40374;DHT22;26079;45.958;12.492;2024-01-10T07:30:41;1.50;86.60
40374;DHT22;26079;45.958;12.492;2024-01-10T07:33:07;1.60;85.20
40374;DHT22;26079;45.958;12.492;2024-01-10T07:35:33;1.80;85.10
40374;DHT22;26079;45.958;12.492;2024-01-10T07:37:59;1.80;84.20
40374;DHT22;26079;45.958;12.492;2024-01-10T07:40:25;1.90;83.80
40374;DHT22;26079;45.958;12.492;2024-01-10T07:42:50;1.90;83.60
40374;DHT22;26079;45.958;12.492;2024-01-10T07:45:16;1.90;84.30
40374;DHT22;26079;45.958;12.492;2024-01-10T07:47:42;2.00;84.30
40374;DHT22;26079;45.958;12.492;2024-01-10T07:50:08;2.00;83.80
40374;DHT22;26079;45.958;12.492;2024-01-10T07:52:36;2.00;83.60
40374;DHT22;26079;45.958;12.492;2024-01-10T07:55:02;2.10;84.70
40374;DHT22;26079;45.958;12.492;2024-01-10T07:57:30;2.20;80.40
40374;DHT22;26079;45.958;12.492;2024-01-10T07:59:56;2.40;81.50
40374;DHT22;26079;45.958;12.492;2024-01-10T08:02:22;2.50;81.20
40374;DHT22;26079;45.958;12.492;2024-01-10T08:04:48;2.60;82.40
40374;DHT22;26079;45.958;12.492;2024-01-10T08:07:14;2.60;81.60
40374;DHT22;26079;45.958;12.492;2024-01-10T08:09:39;2.70;81.50
40374;DHT22;26079;45.958;12.492;2024-01-10T08:12:05;2.80;82.60
40374;DHT22;26079;45.958;12.492;2024-01-10T08:14:31;2.80;84.00
40374;DHT22;26079;45.958;12.492;2024-01-10T08:16:57;2.90;83.10
40374;DHT22;26079;45.958;12.492;2024-01-10T08:19:27;2.90;82.90
40374;DHT22;26079;45.958;12.492;2024-01-10T08:21:53;2.90;82.30
40374;DHT22;26079;45.958;12.492;2024-01-10T08:24:20;3.00;82.00
40374;DHT22;26079;45.958;12.492;2024-01-10T08:26:47;3.10;81.40
40374;DHT22;26079;45.958;12.492;2024-01-10T08:29:17;3.20;81.30
40374;DHT22;26079;45.958;12.492;2024-01-10T08:31:44;3.40;80.40
40374;DHT22;26079;45.958;12.492;2024-01-10T08:34:11;3.40;78.20
40374;DHT22;26079;45.958;12.492;2024-01-10T08:36:37;3.40;79.00
40374;DHT22;26079;45.958;12.492;2024-01-10T08:39:03;3.40;79.10
40374;DHT22;26079;45.958;12.492;2024-01-10T08:41:30;3.40;77.30
40374;DHT22;26079;45.958;12.492;2024-01-10T08:43:55;3.30;76.90
40374;DHT22;26079;45.958;12.492;2024-01-10T08:46:22;3.40;76.80
40374;DHT22;26079;45.958;12.492;2024-01-10T08:48:48;3.40;77.00
40374;DHT22;26079;45.958;12.492;2024-01-10T08:51:14;3.50;75.20
40374;DHT22;26079;45.958;12.492;2024-01-10T08:53:42;3.60;76.00
40374;DHT22;26079;45.958;12.492;2024-01-10T08:56:08;3.60;74.40
40374;DHT22;26079;45.958;12.492;2024-01-10T08:58:34;3.70;75.70
40374;DHT22;26079;45.958;12.492;2024-01-10T09:00:59;3.80;74.00
40374;DHT22;26079;45.958;12.492;2024-01-10T09:03:25;3.90;72.60
40374;DHT22;26079;45.958;12.492;2024-01-10T09:05:51;3.90;73.20
40374;DHT22;26079;45.958;12.492;2024-01-10T09:08:16;4.00;73.80
40374;DHT22;26079;45.958;12.492;2024-01-10T09:10:42;4.00;72.50
40374;DHT22;26079;45.958;12.492;2024-01-10T09:13:08;4.00;72.20
40374;DHT22;26079;45.958;12.492;2024-01-10T09:15:34;4.00;73.20
40374;DHT22;26079;45.958;12.492;2024-01-10T09:18:00;4.10;72.90
40374;DHT22;26079;45.958;12.492;2024-01-10T09:20:25;4.10;70.40
40374;DHT22;26079;45.958;12.492;2024-01-10T09:22:51;4.10;71.10
40374;DHT22;26079;45.958;12.492;2024-01-10T09:25:17;4.10;71.60
40374;DHT22;26079;45.958;12.492;2024-01-10T09:27:43;4.10;72.30
40374;DHT22;26079;45.958;12.492;2024-01-10T09:30:10;4.20;72.50
40374;DHT22;26079;45.958;12.492;2024-01-10T09:32:37;4.20;73.00
40374;DHT22;26079;45.958;12.492;2024-01-10T09:35:03;4.20;73.40
40374;DHT22;26079;45.958;12.492;2024-01-10T09:37:29;4.20;71.60
40374;DHT22;26079;45.958;12.492;2024-01-10T09:39:55;4.20;71.20
40374;DHT22;26079;45.958;12.492;2024-01-10T09:42:21;4.30;71.80
40374;DHT22;26079;45.958;12.492;2024-01-10T09:44:51;4.30;73.40
40374;DHT22;26079;45.958;12.492;2024-01-10T09:47:19;4.40;72.10
40374;DHT22;26079;45.958;12.492;2024-01-10T09:49:45;4.50;73.10
40374;DHT22;26079;45.958;12.492;2024-01-10T09:52:24;4.50;72.50
40374;DHT22;26079;45.958;12.492;2024-01-10T09:54:54;4.60;71.80
40374;DHT22;26079;45.958;12.492;2024-01-10T09:57:20;4.60;71.30
40374;DHT22;26079;45.958;12.492;2024-01-10T09:59:47;4.60;70.90
40374;DHT22;26079;45.958;12.492;2024-01-10T10:02:13;4.60;71.50
40374;DHT22;26079;45.958;12.492;2024-01-10T10:04:46;4.70;71.60
40374;DHT22;26079;45.958;12.492;2024-01-10T10:07:15;4.70;71.60
40374;DHT22;26079;45.958;12.492;2024-01-10T10:09:41;4.70;71.20
40374;DHT22;26079;45.958;12.492;2024-01-10T10:12:07;4.60;69.90
40374;DHT22;26079;45.958;12.492;2024-01-10T10:14:32;4.70;70.00
40374;DHT22;26079;45.958;12.492;2024-01-10T10:17:19;4.80;70.70
40374;DHT22;26079;45.958;12.492;2024-01-10T10:19:45;4.80;70.00
40374;DHT22;26079;45.958;12.492;2024-01-10T10:22:11;4.80;69.30
40374;DHT22;26079;45.958;12.492;2024-01-10T10:24:37;4.90;70.80
40374;DHT22;26079;45.958;12.492;2024-01-10T10:27:11;4.90;70.00
40374;DHT22;26079;45.958;12.492;2024-01-10T10:29:38;5.00;70.80
40374;DHT22;26079;45.958;12.492;2024-01-10T10:32:05;5.00;70.90
40374;DHT22;26079;45.958;12.492;2024-01-10T10:34:31;5.10;70.70
40374;DHT22;26079;45.958;12.492;2024-01-10T10:36:58;5.00;69.30
40374;DHT22;26079;45.958;12.492;2024-01-10T10:39:25;5.00;69.40
40374;DHT22;26079;45.958;12.492;2024-01-10T10:41:51;5.00;69.00
40374;DHT22;26079;45.958;12.492;2024-01-10T10:44:24;5.00;69.70
40374;DHT22;26079;45.958;12.492;2024-01-10T10:46:53;5.10;70.50
40374;DHT22;26079;45.958;12.492;2024-01-10T10:49:25;5.10;68.20
40374;DHT22;26079;45.958;12.492;2024-01-10T10:51:55;5.10;68.70
40374;DHT22;26079;45.958;12.492;2024-01-10T10:54:25;5.10;69.00
40374;DHT22;26079;45.958;12.492;2024-01-10T10:56:51;5.20;69.30
40374;DHT22;26079;45.958;12.492;2024-01-10T10:59:19;5.30;69.20
40374;DHT22;26079;45.958;12.492;2024-01-10T11:01:47;5.30;69.00
40374;DHT22;26079;45.958;12.492;2024-01-10T11:04:13;5.40;68.60
40374;DHT22;26079;45.958;12.492;2024-01-10T11:06:40;5.40;69.90
40374;DHT22;26079;45.958;12.492;2024-01-10T11:09:08;5.40;68.90
40374;DHT22;26079;45.958;12.492;2024-01-10T11:25:26;5.70;70.40
40374;DHT22;26079;45.958;12.492;2024-01-10T11:27:55;5.70;69.40
40374;DHT22;26079;45.958;12.492;2024-01-10T11:30:50;5.80;70.50
40374;DHT22;26079;45.958;12.492;2024-01-10T11:33:32;5.80;70.30
40374;DHT22;26079;45.958;12.492;2024-01-10T11:38:57;5.90;68.70
40374;DHT22;26079;45.958;12.492;2024-01-10T11:41:34;5.90;69.50
40374;DHT22;26079;45.958;12.492;2024-01-10T11:46:50;6.00;69.60
40374;DHT22;26079;45.958;12.492;2024-01-10T11:49:19;6.10;69.30
40374;DHT22;26079;45.958;12.492;2024-01-10T11:51:57;6.10;70.90
40374;DHT22;26079;45.958;12.492;2024-01-10T11:54:36;6.30;69.60
40374;DHT22;26079;45.958;12.492;2024-01-10T11:57:03;6.20;69.60
40374;DHT22;26079;45.958;12.492;2024-01-10T11:59:33;6.20;68.60
40374;DHT22;26079;45.958;12.492;2024-01-10T12:01:59;6.10;69.10
40374;DHT22;26079;45.958;12.492;2024-01-10T12:04:25;6.20;70.10
40374;DHT22;26079;45.958;12.492;2024-01-10T12:06:55;6.30;69.30
40374;DHT22;26079;45.958;12.492;2024-01-10T12:09:21;6.30;68.50
40374;DHT22;26079;45.958;12.492;2024-01-10T12:11:50;6.30;69.70
40374;DHT22;26079;45.958;12.492;2024-01-10T12:14:15;6.30;69.80
40374;DHT22;26079;45.958;12.492;2024-01-10T12:16:41;6.40;69.00
40374;DHT22;26079;45.958;12.492;2024-01-10T12:19:07;6.50;67.90
40374;DHT22;26079;45.958;12.492;2024-01-10T12:21:33;6.40;67.20
40374;DHT22;26079;45.958;12.492;2024-01-10T12:23:58;6.50;69.10
40374;DHT22;26079;45.958;12.492;2024-01-10T12:26:24;6.60;68.10
40374;DHT22;26079;45.958;12.492;2024-01-10T12:28:59;6.60;68.30
40374;DHT22;26079;45.958;12.492;2024-01-10T12:31:28;6.50;67.90
40374;DHT22;26079;45.958;12.492;2024-01-10T12:34:00;6.40;68.50
40374;DHT22;26079;45.958;12.492;2024-01-10T12:36:26;6.30;68.40
40374;DHT22;26079;45.958;12.492;2024-01-10T12:39:11;6.20;68.80
40374;DHT22;26079;45.958;12.492;2024-01-10T12:42:05;6.10;69.50
40374;DHT22;26079;45.958;12.492;2024-01-10T12:44:31;6.10;69.70
40374;DHT22;26079;45.958;12.492;2024-01-10T12:46:57;6.10;69.20
40374;DHT22;26079;45.958;12.492;2024-01-10T12:49:23;6.10;69.40
40374;DHT22;26079;45.958;12.492;2024-01-10T12:51:48;6.10;68.90
40374;DHT22;26079;45.958;12.492;2024-01-10T12:54:15;6.20;69.40
40374;DHT22;26079;45.958;12.492;2024-01-10T12:56:42;6.10;69.90
40374;DHT22;26079;45.958;12.492;2024-01-10T12:59:08;6.10;69.90
40374;DHT22;26079;45.958;12.492;2024-01-10T13:01:35;6.10;69.70
40374;DHT22;26079;45.958;12.492;2024-01-10T13:04:00;6.10;69.90
40374;DHT22;26079;45.958;12.492;2024-01-10T13:06:26;6.10;70.10
40374;DHT22;26079;45.958;12.492;2024-01-10T13:08:52;6.10;70.10
40374;DHT22;26079;45.958;12.492;2024-01-10T13:11:19;6.20;69.90
40374;DHT22;26079;45.958;12.492;2024-01-10T13:13:45;6.10;70.30
40374;DHT22;26079;45.958;12.492;2024-01-10T13:16:11;6.00;69.90
40374;DHT22;26079;45.958;12.492;2024-01-10T13:18:38;6.10;70.20
40374;DHT22;26079;45.958;12.492;2024-01-10T13:21:04;6.00;70.60
40374;DHT22;26079;45.958;12.492;2024-01-10T13:23:30;6.00;70.80
40374;DHT22;26079;45.958;12.492;2024-01-10T13:25:55;6.00;69.40
40374;DHT22;26079;45.958;12.492;2024-01-10T13:28:21;6.00;70.30
40374;DHT22;26079;45.958;12.492;2024-01-10T13:30:47;6.00;70.80
40374;DHT22;26079;45.958;12.492;2024-01-10T13:33:13;6.00;71.20
40374;DHT22;26079;45.958;12.492;2024-01-10T13:35:39;6.00;71.10
40374;DHT22;26079;45.958;12.492;2024-01-10T13:38:05;6.00;69.30
40374;DHT22;26079;45.958;12.492;2024-01-10T13:40:31;6.00;69.80
40374;DHT22;26079;45.958;12.492;2024-01-10T13:42:59;6.10;69.80
40374;DHT22;26079;45.958;12.492;2024-01-10T13:45:28;6.10;70.90
40374;DHT22;26079;45.958;12.492;2024-01-10T13:47:54;6.10;69.30
40374;DHT22;26079;45.958;12.492;2024-01-10T13:50:20;6.10;69.90
40374;DHT22;26079;45.958;12.492;2024-01-10T13:52:45;6.10;70.00
40374;DHT22;26079;45.958;12.492;2024-01-10T13:55:11;6.10;70.70
40374;DHT22;26079;45.958;12.492;2024-01-10T13:57:37;6.10;70.60
40374;DHT22;26079;45.958;12.492;2024-01-10T14:00:03;6.00;70.60
40374;DHT22;26079;45.958;12.492;2024-01-10T14:02:29;6.00;71.30
40374;DHT22;26079;45.958;12.492;2024-01-10T14:04:55;5.90;70.80
40374;DHT22;26079;45.958;12.492;2024-01-10T14:07:23;5.90;71.00
40374;DHT22;26079;45.958;12.492;2024-01-10T14:09:49;5.80;71.90
40374;DHT22;26079;45.958;12.492;2024-01-10T14:12:15;5.80;72.00
40374;DHT22;26079;45.958;12.492;2024-01-10T14:14:40;5.80;73.10
40374;DHT22;26079;45.958;12.492;2024-01-10T14:17:06;5.80;72.20
40374;DHT22;26079;45.958;12.492;2024-01-10T14:19:32;5.80;72.10
40374;DHT22;26079;45.958;12.492;2024-01-10T14:21:58;5.80;72.50
40374;DHT22;26079;45.958;12.492;2024-01-10T14:24:24;5.80;72.00
40374;DHT22;26079;45.958;12.492;2024-01-10T14:26:50;5.80;72.30
40374;DHT22;26079;45.958;12.492;2024-01-10T14:29:16;5.80;72.80
40374;DHT22;26079;45.958;12.492;2024-01-10T14:31:42;5.80;71.90
40374;DHT22;26079;45.958;12.492;2024-01-10T14:34:07;5.70;72.50
40374;DHT22;26079;45.958;12.492;2024-01-10T14:36:34;5.70;72.70
40374;DHT22;26079;45.958;12.492;2024-01-10T14:39:00;5.70;73.50
40374;DHT22;26079;45.958;12.492;2024-01-10T14:41:26;5.60;74.60
40374;DHT22;26079;45.958;12.492;2024-01-10T14:43:51;5.50;73.90
40374;DHT22;26079;45.958;12.492;2024-01-10T14:46:17;5.50;73.00
40374;DHT22;26079;45.958;12.492;2024-01-10T14:48:43;5.40;73.40
40374;DHT22;26079;45.958;12.492;2024-01-10T14:51:08;5.50;73.50
40374;DHT22;26079;45.958;12.492;2024-01-10T14:53:34;5.40;72.90
40374;DHT22;26079;45.958;12.492;2024-01-10T14:56:01;5.40;73.50
40374;DHT22;26079;45.958;12.492;2024-01-10T14:58:27;5.30;73.40
40374;DHT22;26079;45.958;12.492;2024-01-10T15:00:53;5.30;73.70
40374;DHT22;26079;45.958;12.492;2024-01-10T15:03:18;5.30;74.30
40374;DHT22;26079;45.958;12.492;2024-01-10T15:05:44;5.20;73.70
40374;DHT22;26079;45.958;12.492;2024-01-10T15:08:11;5.20;73.70
40374;DHT22;26079;45.958;12.492;2024-01-10T15:10:36;5.20;74.00
40374;DHT22;26079;45.958;12.492;2024-01-10T15:13:11;5.20;73.50
40374;DHT22;26079;45.958;12.492;2024-01-10T15:15:38;5.20;75.00
40374;DHT22;26079;45.958;12.492;2024-01-10T15:18:10;5.10;75.40
40374;DHT22;26079;45.958;12.492;2024-01-10T15:20:35;5.00;74.60
40374;DHT22;26079;45.958;12.492;2024-01-10T15:23:01;5.00;75.60
40374;DHT22;26079;45.958;12.492;2024-01-10T15:25:27;4.90;75.60
40374;DHT22;26079;45.958;12.492;2024-01-10T15:27:53;4.90;75.20
40374;DHT22;26079;45.958;12.492;2024-01-10T15:30:19;4.80;76.20
40374;DHT22;26079;45.958;12.492;2024-01-10T15:32:49;4.80;77.10
40374;DHT22;26079;45.958;12.492;2024-01-10T15:35:17;4.70;77.60
40374;DHT22;26079;45.958;12.492;2024-01-10T15:37:44;4.60;78.50
40374;DHT22;26079;45.958;12.492;2024-01-10T15:40:10;4.40;80.20
40374;DHT22;26079;45.958;12.492;2024-01-10T15:42:42;4.20;81.20
40374;DHT22;26079;45.958;12.492;2024-01-10T15:45:12;4.10;81.70